KWWR/WWR METAR and TAF weather

Enter ICAO airport designator
Station Type Date Time Source
KWWR METAR 2022/07/01 01:55 UTC NOAA

KWWR 010155Z AUTO 15013KT 10SM CLR 31/11 A2993 RMK AO2


Station Type Date Time Source
KWWR Decoded METAR 2022/07/01 01:55 UTC NOAA

Woodward, West Woodward Airport, OK, United States (KWWR) 36-26-12N 099-31-16W 667M
Jun 30, 2022 - 09:55 PM EDT / 2022.07.01 0155 UTC
Wind: from the SSE (150 degrees) at 15 MPH (13 KT):0
Visibility: 10 mile(s):0
Sky conditions: clear
Temperature: 87 F (31 C)
Dew Point: 51 F (11 C)
Relative Humidity: 29%
Pressure (altimeter): 29.93 in. Hg (1013 hPa)
ob: KWWR 010155Z AUTO 15013KT 10SM CLR 31/11 A2993 RMK AO2
cycle: 2

Station Type Date Time Source
KWWR TAF 2022/06/30 18:22 UTC NOAA

TAF KWWR 301720Z 3018/0118 20015G20KT P6SM SKC
FM010200 16015KT P6SM SKC

Example: see airport list